Time;durP1;ratioP1;P1;durP2;ratioP2;P2;SDS_P1;SDS_P2;PMS_P1;PMS_P2;Temp;Humidity;BMP_temperature;BMP_pressure;BME280_temperature;BME280_humidity;BME280_pressure;Samples;Min_cycle;Max_cycle;Signal;HPM_P1;HPM_P2
2021/06/05 00:00:31;;;;;;;;;;;;;;;14.83;64.96;100303.62;4424268;27;32826;-96
2021/06/05 00:03:25;;;;;;;;;;;;;;;14.76;65.25;100298.16;4357981;27;20008;-96
2021/06/05 00:06:03;;;;;;;;;;;;;;;14.94;64.67;100308.50;4428294;27;33112;-93
2021/06/05 00:08:45;;;;;;;;;;;;;;;14.95;64.68;100291.13;4320127;27;33966;-93
2021/06/05 00:11:22;;;;;;;;;;;;;;;14.89;64.66;100297.38;4677543;27;32407;-94
2021/06/05 00:13:56;;;;;;;;;;;;;;;14.84;64.97;100286.28;4404495;27;30960;-93
2021/06/05 00:16:43;;;;;;;;;;;;;;;14.78;64.79;100293.34;4633731;27;33419;-94
2021/06/05 00:19:17;;;;;;;;;;;;;;;15.04;63.67;100299.13;4452104;27;33234;-93
2021/06/05 00:21:51;;;;;;;;;;;;;;;14.98;63.70;100290.75;4418050;27;34003;-94
2021/06/05 00:27:47;;;;;;;;;;;;;;;14.73;64.94;100289.56;4445280;27;20043;-93
2021/06/05 00:33:21;;;;;;;;;;;;;;;14.64;64.83;100299.75;4344832;27;35881;-94
2021/06/05 00:36:08;;;;;;;;;;;;;;;14.82;64.23;100296.53;4389915;27;33955;31
2021/06/05 00:38:41;;;;;;;;;;;;;;;14.78;63.95;100292.53;4691839;27;33209;-94
2021/06/05 00:41:34;;;;;;;;;;;;;;;14.50;65.15;100285.22;4421234;27;34661;-93
2021/06/05 00:44:24;;;;;;;;;;;;;;;14.57;64.92;100277.94;4690127;27;33147;31
2021/06/05 00:47:14;;;;;;;;;;;;;;;14.60;64.65;100282.16;4383881;27;33961;-94
2021/06/05 00:49:55;;;;;;;;;;;;;;;14.49;65.10;100278.13;4503409;27;31964;-92
2021/06/05 00:52:46;;;;;;;;;;;;;;;14.37;65.39;100271.53;4540493;27;32016;-95
2021/06/05 00:55:44;;;;;;;;;;;;;;;14.72;64.12;100277.84;4727231;27;32654;31
2021/06/05 00:58:43;;;;;;;;;;;;;;;14.67;64.13;100268.59;4369092;27;33925;-94
2021/06/05 01:01:23;;;;;;;;;;;;;;;14.68;64.05;100273.00;4372279;27;31800;-94
2021/06/05 01:04:10;;;;;;;;;;;;;;;14.46;64.76;100265.75;4361554;27;33030;-94
2021/06/05 01:07:01;;;;;;;;;;;;;;;14.65;64.00;100263.34;4333606;27;33334;-93
2021/06/05 01:10:09;;;;;;;;;;;;;;;14.48;64.30;100257.37;4355840;27;34704;-94
2021/06/05 01:13:06;;;;;;;;;;;;;;;14.27;64.98;100256.41;4434026;27;33724;-94
2021/06/05 01:15:42;;;;;;;;;;;;;;;14.43;64.51;100251.69;4461736;27;31513;-94
2021/06/05 01:18:35;;;;;;;;;;;;;;;14.34;64.97;100251.03;4547340;27;31763;-94
2021/06/05 01:24:45;;;;;;;;;;;;;;;14.34;64.75;100244.75;4332859;27;32341;-95
2021/06/05 01:27:29;;;;;;;;;;;;;;;14.44;64.45;100247.94;4968391;27;34074;-93
2021/06/05 01:33:22;;;;;;;;;;;;;;;14.24;64.83;100245.94;4346243;27;36186;-94
2021/06/05 01:35:57;;;;;;;;;;;;;;;14.29;64.57;100248.88;4569445;27;32308;-95
2021/06/05 01:38:45;;;;;;;;;;;;;;;14.13;64.92;100230.19;4543627;27;34580;31
2021/06/05 01:45:16;;;;;;;;;;;;;;;14.07;65.53;100234.56;4482695;27;32721;-95
2021/06/05 01:48:15;;;;;;;;;;;;;;;13.91;65.62;100232.97;4369584;27;32143;31
2021/06/05 01:50:54;;;;;;;;;;;;;;;14.09;64.98;100237.06;4506865;27;32613;-95
2021/06/05 01:53:33;;;;;;;;;;;;;;;13.47;67.29;100236.75;4409724;27;33004;-95
2021/06/05 01:56:36;;;;;;;;;;;;;;;13.52;67.49;100231.59;4542210;27;34816;-94
2021/06/05 01:59:12;;;;;;;;;;;;;;;13.75;66.59;100228.66;4522961;27;32102;-95
2021/06/05 02:01:58;;;;;;;;;;;;;;;13.60;67.11;100226.00;4393105;27;31827;-95
2021/06/05 02:05:04;;;;;;;;;;;;;;;13.55;66.92;100220.34;4385282;27;865623;-95
2021/06/05 02:11:07;;;;;;;;;;;;;;;13.93;65.44;100205.59;4585976;27;34783;-95
2021/06/05 02:14:03;;;;;;;;;;;;;;;13.83;66.04;100205.09;4566100;27;31788;31
2021/06/05 02:23:29;;;;;;;;;;;;;;;13.77;65.83;100195.84;4480455;27;32142;-94
2021/06/05 02:26:26;;;;;;;;;;;;;;;13.40;66.70;100197.88;4414914;27;33075;-94
2021/06/05 02:29:25;;;;;;;;;;;;;;;13.64;65.89;100196.59;4572902;27;33079;-95
2021/06/05 02:32:02;;;;;;;;;;;;;;;13.65;65.82;100186.56;4576676;27;31717;-95
2021/06/05 02:34:46;;;;;;;;;;;;;;;13.78;65.55;100192.94;4434185;27;34412;-93
2021/06/05 02:37:24;;;;;;;;;;;;;;;13.84;64.94;100188.59;4639692;27;35237;-94
2021/06/05 02:43:18;;;;;;;;;;;;;;;13.82;65.15;100192.53;4822705;27;33822;-94
2021/06/05 02:46:14;;;;;;;;;;;;;;;13.80;64.93;100189.19;4446277;27;32921;-95
2021/06/05 02:52:36;;;;;;;;;;;;;;;13.59;65.78;100188.19;4530493;27;33473;31
2021/06/05 02:55:32;;;;;;;;;;;;;;;13.69;65.58;100188.69;4373082;27;33365;-94
2021/06/05 02:58:07;;;;;;;;;;;;;;;13.56;66.24;100189.44;4454154;27;32227;-94
2021/06/05 03:01:01;;;;;;;;;;;;;;;13.54;66.31;100191.50;4405026;27;33646;-94
2021/06/05 03:03:56;;;;;;;;;;;;;;;13.45;67.21;100181.81;4552704;27;34164;31
2021/06/05 03:06:49;;;;;;;;;;;;;;;13.55;66.83;100176.88;4484245;27;34126;31
2021/06/05 03:09:36;;;;;;;;;;;;;;;13.56;66.61;100177.72;4548793;27;33998;-95
2021/06/05 03:12:16;;;;;;;;;;;;;;;13.33;67.04;100170.59;4592247;27;34499;-93
2021/06/05 03:14:57;;;;;;;;;;;;;;;13.29;67.33;100176.63;4426495;27;35677;-93
2021/06/05 03:17:31;;;;;;;;;;;;;;;13.82;65.58;100176.25;4426438;27;33026;-94
2021/06/05 03:20:12;;;;;;;;;;;;;;;13.66;65.85;100171.97;4503689;27;32118;-94
2021/06/05 03:22:59;;;;;;;;;;;;;;;13.90;65.02;100167.94;4603466;27;33411;31
2021/06/05 03:25:35;;;;;;;;;;;;;;;13.64;65.95;100174.88;4323783;27;35347;-94
2021/06/05 03:31:14;;;;;;;;;;;;;;;13.75;66.39;100176.22;4541448;27;31938;-94
2021/06/05 03:33:52;;;;;;;;;;;;;;;13.87;66.38;100177.34;4629213;27;31607;31
2021/06/05 03:36:26;;;;;;;;;;;;;;;13.94;66.14;100180.94;4459381;27;36393;-94
2021/06/05 03:39:03;;;;;;;;;;;;;;;14.21;65.12;100178.38;4432180;27;32472;-92
2021/06/05 03:41:41;;;;;;;;;;;;;;;13.80;67.05;100173.72;4595495;27;32220;31
2021/06/05 03:44:17;;;;;;;;;;;;;;;14.05;66.55;100176.00;4471827;27;34035;-94
2021/06/05 03:50:24;;;;;;;;;;;;;;;13.94;67.31;100177.38;4464123;27;33883;-95
2021/06/05 03:53:05;;;;;;;;;;;;;;;14.22;66.22;100176.50;4468613;27;33563;-95
2021/06/05 03:55:59;;;;;;;;;;;;;;;14.28;66.29;100175.69;4707120;27;35332;-96
2021/06/05 03:58:41;;;;;;;;;;;;;;;14.38;66.34;100186.22;4554072;27;32796;-94
2021/06/05 04:01:59;;;;;;;;;;;;;;;14.39;66.67;100182.47;4389525;27;20060;-94
2021/06/05 04:04:32;;;;;;;;;;;;;;;14.47;67.00;100179.56;4624276;27;33125;-93
2021/06/05 04:07:09;;;;;;;;;;;;;;;14.54;67.10;100188.59;4512264;27;33200;-94
2021/06/05 04:09:50;;;;;;;;;;;;;;;14.71;66.58;100175.50;4378736;27;35257;-94
2021/06/05 04:12:23;;;;;;;;;;;;;;;14.95;66.20;100171.38;4576107;27;32490;-94
2021/06/05 04:14:58;;;;;;;;;;;;;;;15.10;66.03;100168.47;4473711;27;32325;-94
2021/06/05 04:20:51;;;;;;;;;;;;;;;14.93;66.88;100165.31;4489103;27;34598;-94
2021/06/05 04:23:24;;;;;;;;;;;;;;;15.33;65.78;100173.53;4543960;27;34544;-94
2021/06/05 04:29:08;;;;;;;;;;;;;;;15.47;66.64;100157.22;4646064;27;33109;-94
2021/06/05 04:35:22;;;;;;;;;;;;;;;16.06;65.23;100161.78;4099366;27;20136;-92
2021/06/05 04:38:28;;;;;;;;;;;;;;;16.17;65.41;100163.00;4312899;27;32001;31
2021/06/05 04:41:24;;;;;;;;;;;;;;;16.14;66.34;100160.72;4507903;27;33413;-95
2021/06/05 04:44:08;;;;;;;;;;;;;;;16.17;64.96;100159.47;4400053;27;33246;-95
2021/06/05 04:47:01;;;;;;;;;;;;;;;16.63;63.14;100153.00;4314335;33;35525;-94
2021/06/05 04:49:45;;;;;;;;;;;;;;;16.52;62.94;100143.56;4723858;27;33451;-94
2021/06/05 04:52:19;;;;;;;;;;;;;;;16.76;62.34;100144.69;4312521;33;34312;-96
2021/06/05 04:55:08;;;;;;;;;;;;;;;16.73;61.52;100139.69;4266066;33;36217;-94
2021/06/05 04:58:12;;;;;;;;;;;;;;;17.20;60.00;100133.13;4306534;27;33538;-94
2021/06/05 05:01:09;;;;;;;;;;;;;;;17.62;59.34;100133.44;4551537;27;33462;-96
2021/06/05 05:04:08;;;;;;;;;;;;;;;17.92;58.11;100121.78;4288577;33;34474;-95
2021/06/05 05:06:56;;;;;;;;;;;;;;;18.36;56.81;100125.28;4286896;33;33056;-96
2021/06/05 05:12:45;;;;;;;;;;;;;;;18.70;56.42;100125.69;4324189;32;32693;-96
2021/06/05 05:15:38;;;;;;;;;;;;;;;18.83;56.42;100131.00;4296232;33;34376;-96
2021/06/05 05:18:13;;;;;;;;;;;;;;;18.91;57.13;100129.00;4268996;33;33051;-96
2021/06/05 05:21:31;;;;;;;;;;;;;;;19.15;56.30;100138.13;3035247;27;20271;-93
2021/06/05 05:24:11;;;;;;;;;;;;;;;19.36;56.22;100144.97;4305318;33;32706;-96
2021/06/05 05:26:54;;;;;;;;;;;;;;;19.61;55.91;100135.69;4331555;33;34682;-96
2021/06/05 05:30:04;;;;;;;;;;;;;;;19.54;56.30;100135.81;4326029;33;20083;-96
2021/06/05 05:32:58;;;;;;;;;;;;;;;19.70;56.05;100137.00;4300097;33;33848;-96
2021/06/05 05:36:05;;;;;;;;;;;;;;;19.97;56.04;100142.03;4307897;33;32309;-96
2021/06/05 05:39:15;;;;;;;;;;;;;;;20.19;55.67;100148.56;4303968;33;34455;-96
2021/06/05 05:42:15;;;;;;;;;;;;;;;20.25;55.76;100139.38;4314767;33;32900;-96
2021/06/05 05:45:12;;;;;;;;;;;;;;;20.26;54.77;100142.97;4287164;33;36209;-96
2021/06/05 05:48:22;;;;;;;;;;;;;;;20.42;53.60;100141.38;4291105;33;31300;-96
2021/06/05 05:51:19;;;;;;;;;;;;;;;20.35;53.02;100151.66;4291058;33;33400;-96
2021/06/05 05:55:05;;;;;;;;;;;;;;;20.66;52.87;100152.28;4255602;33;20059;-96
2021/06/05 05:58:15;;;;;;;;;;;;;;;20.66;51.55;100152.28;4226797;33;33955;-96
2021/06/05 06:00:57;;;;;;;;;;;;;;;20.59;51.68;100158.72;4231827;33;32241;-95
2021/06/05 06:03:48;;;;;;;;;;;;;;;20.78;51.39;100161.34;4228808;33;34585;-95
2021/06/05 06:06:42;;;;;;;;;;;;;;;21.13;50.80;100157.59;4237805;33;33549;-96
2021/06/05 06:09:37;;;;;;;;;;;;;;;21.26;51.14;100146.28;4199439;34;32490;-96
2021/06/05 06:12:26;;;;;;;;;;;;;;;21.52;51.49;100149.47;4197313;34;34518;-94
2021/06/05 06:15:00;;;;;;;;;;;;;;;21.50;51.79;100146.97;4188987;34;33374;-96
2021/06/05 06:17:35;;;;;;;;;;;;;;;21.60;51.74;100150.97;4189710;34;35070;-96
2021/06/05 06:20:10;;;;;;;;;;;;;;;21.77;51.85;100150.97;4201789;34;35664;-93
2021/06/05 06:22:50;;;;;;;;;;;;;;;21.79;51.62;100155.13;4184932;34;33455;-96
2021/06/05 06:25:26;;;;;;;;;;;;;;;21.75;52.19;100155.87;4185986;34;35827;-96
2021/06/05 06:28:25;;;;;;;;;;;;;;;21.79;50.66;100148.81;4238169;33;32598;-96
2021/06/05 06:30:58;;;;;;;;;;;;;;;21.73;50.90;100158.06;4246243;33;35031;-96
2021/06/05 06:33:44;;;;;;;;;;;;;;;21.83;50.76;100150.78;4323027;33;32334;-95
2021/06/05 06:36:18;;;;;;;;;;;;;;;21.97;51.44;100158.69;4326014;33;32717;-94
2021/06/05 06:39:01;;;;;;;;;;;;;;;22.12;50.97;100158.09;4313140;33;33042;-94
2021/06/05 06:41:36;;;;;;;;;;;;;;;22.31;51.21;100155.87;4314547;33;33217;-96
2021/06/05 06:44:43;;;;;;;;;;;;;;;22.35;50.71;100165.28;4313059;33;34046;-96
2021/06/05 06:50:34;;;;;;;;;;;;;;;23.07;46.86;100166.16;4290205;33;35175;-94
2021/06/05 06:53:45;;;;;;;;;;;;;;;23.04;44.56;100153.72;4308352;33;20005;-96
2021/06/05 06:56:27;;;;;;;;;;;;;;;23.07;41.14;100153.19;4290857;33;32263;-94
2021/06/05 06:59:03;;;;;;;;;;;;;;;22.78;39.48;100155.34;4291124;33;34315;-96
2021/06/05 07:02:04;;;;;;;;;;;;;;;23.17;41.17;100157.16;4285484;33;35403;-93
2021/06/05 07:05:01;;;;;;;;;;;;;;;23.07;39.73;100146.84;4289341;33;33048;-96
2021/06/05 07:08:32;;;;;;;;;;;;;;;23.55;40.42;100147.84;4253633;33;34634;-96
2021/06/05 07:11:36;;;;;;;;;;;;;;;23.52;38.62;100139.25;4317565;33;34964;-96
2021/06/05 07:14:10;;;;;;;;;;;;;;;23.96;42.85;100131.59;4319392;33;35490;-96
2021/06/05 07:17:07;;;;;;;;;;;;;;;24.14;39.93;100133.06;4333706;33;32610;-94
2021/06/05 07:26:06;;;;;;;;;;;;;;;24.44;39.05;100127.97;4190608;33;35052;-96
2021/06/05 07:29:11;;;;;;;;;;;;;;;24.19;37.68;100128.66;4308765;28;35197;-92
2021/06/05 07:31:52;;;;;;;;;;;;;;;24.13;36.91;100120.38;4466504;27;33332;-92
2021/06/05 07:34:40;;;;;;;;;;;;;;;24.64;37.08;100129.97;4338856;27;34554;-96
2021/06/05 07:37:42;;;;;;;;;;;;;;;24.63;36.59;100117.28;4320268;27;34769;-91
2021/06/05 07:40:26;;;;;;;;;;;;;;;24.64;37.01;100124.44;4436619;27;31111;-95
2021/06/05 07:43:48;;;;;;;;;;;;;;;24.82;37.38;100115.66;4456850;27;20011;31
2021/06/05 07:46:24;;;;;;;;;;;;;;;25.02;38.31;100114.03;4375011;27;33090;-96
2021/06/05 07:49:04;;;;;;;;;;;;;;;25.35;36.58;100115.47;4302456;33;33011;-91
2021/06/05 07:55:05;;;;;;;;;;;;;;;25.19;35.38;100119.28;4341150;27;34341;-95
2021/06/05 07:58:27;;;;;;;;;;;;;;;25.12;37.64;100114.06;4429375;27;33449;-96
2021/06/05 08:01:22;;;;;;;;;;;;;;;25.11;37.48;100106.03;4390774;27;32765;-95
2021/06/05 08:07:22;;;;;;;;;;;;;;;25.48;35.88;100100.25;4984186;27;32938;-95
2021/06/05 08:10:29;;;;;;;;;;;;;;;25.80;34.68;100088.00;4308840;27;20032;-94
2021/06/05 08:13:30;;;;;;;;;;;;;;;26.06;34.08;100093.50;4281346;33;36705;-96
2021/06/05 08:16:27;;;;;;;;;;;;;;;25.75;34.26;100088.03;4273922;33;34325;-96
2021/06/05 08:19:13;;;;;;;;;;;;;;;26.38;34.30;100083.97;4283460;28;33390;-96
2021/06/05 08:22:01;;;;;;;;;;;;;;;26.07;34.08;100087.66;4283622;33;33022;-96
2021/06/05 08:24:59;;;;;;;;;;;;;;;26.47;34.84;100081.41;4278977;33;34063;-96
2021/06/05 08:27:37;;;;;;;;;;;;;;;27.06;35.86;100083.25;4277127;33;32717;-94
2021/06/05 08:30:15;;;;;;;;;;;;;;;27.02;32.81;100082.22;4287583;33;32065;-94
2021/06/05 08:32:53;;;;;;;;;;;;;;;27.28;32.48;100080.03;4262532;33;34546;-94
2021/06/05 08:35:33;;;;;;;;;;;;;;;27.62;30.53;100079.19;4266248;33;34774;-95
2021/06/05 08:38:20;;;;;;;;;;;;;;;27.76;31.44;100082.09;4323858;28;33417;-94
2021/06/05 08:41:08;;;;;;;;;;;;;;;27.36;29.83;100080.56;4288621;33;33459;-93
2021/06/05 08:44:03;;;;;;;;;;;;;;;27.37;28.42;100076.69;4307368;33;35111;-95
2021/06/05 08:46:50;;;;;;;;;;;;;;;27.02;29.25;100081.34;4301242;33;34842;-93
2021/06/05 08:49:30;;;;;;;;;;;;;;;27.24;29.46;100065.09;4325148;33;33994;-95
2021/06/05 08:52:11;;;;;;;;;;;;;;;27.45;28.61;100070.47;4322763;33;32542;-96
2021/06/05 08:55:13;;;;;;;;;;;;;;;27.58;28.60;100061.47;4333982;33;37023;-89
2021/06/05 08:58:28;;;;;;;;;;;;;;;27.56;28.97;100062.88;4352734;27;34266;-96
2021/06/05 09:01:26;;;;;;;;;;;;;;;27.85;27.62;100060.06;4336220;33;33844;-96
2021/06/05 09:04:35;;;;;;;;;;;;;;;27.50;28.03;100066.81;4323889;33;19999;-94
2021/06/05 09:07:14;;;;;;;;;;;;;;;28.19;29.41;100053.59;4319157;33;33817;-96
2021/06/05 09:10:34;;;;;;;;;;;;;;;28.40;27.65;100053.28;4298282;33;34616;-96
2021/06/05 09:13:28;;;;;;;;;;;;;;;28.77;28.18;100046.12;4286562;33;33842;-95
2021/06/05 09:16:20;;;;;;;;;;;;;;;28.41;28.04;100049.41;4260403;33;33491;-92
2021/06/05 09:19:27;;;;;;;;;;;;;;;29.24;26.91;100041.47;4285176;33;34307;-96
2021/06/05 09:22:38;;;;;;;;;;;;;;;29.13;26.42;100032.44;4263525;33;20045;-91
2021/06/05 09:25:25;;;;;;;;;;;;;;;29.39;27.33;100032.03;4300807;27;32036;-96
2021/06/05 09:28:36;;;;;;;;;;;;;;;29.48;25.47;100038.53;4287915;27;19984;-92
2021/06/05 09:31:15;;;;;;;;;;;;;;;28.66;27.56;100037.09;4253279;33;33869;-92
2021/06/05 09:33:49;;;;;;;;;;;;;;;29.16;28.54;100037.41;4247143;33;33455;-96
2021/06/05 09:36:34;;;;;;;;;;;;;;;28.83;26.44;100039.34;4226686;33;32779;-88
2021/06/05 09:39:12;;;;;;;;;;;;;;;29.32;28.08;100037.97;4244972;33;32875;-93
2021/06/05 09:41:49;;;;;;;;;;;;;;;29.62;25.89;100030.19;4271469;33;34211;-92
2021/06/05 09:44:27;;;;;;;;;;;;;;;29.99;25.63;100024.78;4249180;33;33046;-92
2021/06/05 09:47:05;;;;;;;;;;;;;;;29.97;26.99;100032.59;4406798;27;33871;-93
2021/06/05 09:50:31;;;;;;;;;;;;;;;29.65;26.62;100026.78;4295893;33;32122;-96
2021/06/05 09:53:16;;;;;;;;;;;;;;;30.05;24.86;100027.13;4328279;27;34229;-96
2021/06/05 09:56:04;;;;;;;;;;;;;;;29.07;25.65;100030.87;4341013;33;33624;-95
2021/06/05 09:59:00;;;;;;;;;;;;;;;28.87;24.73;100029.28;4328396;33;33188;-96
2021/06/05 10:01:56;;;;;;;;;;;;;;;28.76;25.03;100019.44;4336103;33;32885;-92
2021/06/05 10:04:35;;;;;;;;;;;;;;;29.51;24.85;100015.66;4335161;33;34097;-96
2021/06/05 10:07:27;;;;;;;;;;;;;;;29.44;26.20;100020.78;4312931;33;33980;-93
2021/06/05 10:10:04;;;;;;;;;;;;;;;29.10;25.26;100001.62;4323433;33;34090;-96
2021/06/05 10:12:46;;;;;;;;;;;;;;;30.07;25.64;99996.97;4334240;33;32110;-95
2021/06/05 10:15:57;;;;;;;;;;;;;;;30.01;26.40;100006.59;4304775;33;33447;-95
2021/06/05 10:19:01;;;;;;;;;;;;;;;30.04;25.75;100000.37;2622211;27;35357;-94
2021/06/05 10:21:39;;;;;;;;;;;;;;;30.39;24.40;100002.69;4320758;33;33581;-96
2021/06/05 10:24:38;;;;;;;;;;;;;;;30.32;24.17;99994.75;4298356;33;32179;-96
2021/06/05 10:27:41;;;;;;;;;;;;;;;30.35;24.12;99994.13;4285625;33;34557;-96
2021/06/05 10:30:35;;;;;;;;;;;;;;;30.10;23.63;99988.00;4268524;33;33571;-96
2021/06/05 10:34:13;;;;;;;;;;;;;;;30.03;24.41;99981.19;4292514;33;32984;-92
2021/06/05 10:36:53;;;;;;;;;;;;;;;30.08;24.66;99973.56;4335849;27;33194;-96
2021/06/05 10:39:50;;;;;;;;;;;;;;;30.18;23.55;99983.66;4293470;33;19992;-94
2021/06/05 10:43:05;;;;;;;;;;;;;;;30.34;22.33;99974.94;4297485;27;33617;31
2021/06/05 10:45:42;;;;;;;;;;;;;;;30.16;22.48;99973.97;4254057;33;33423;-93
2021/06/05 10:48:27;;;;;;;;;;;;;;;30.57;22.53;99967.44;4273067;33;33562;-94
2021/06/05 10:51:03;;;;;;;;;;;;;;;30.78;22.17;99968.59;4261360;33;35352;-95
2021/06/05 10:53:37;;;;;;;;;;;;;;;31.25;21.44;99967.41;4261051;33;33741;-95
2021/06/05 10:56:15;;;;;;;;;;;;;;;31.02;21.35;99966.62;4258583;33;34374;-94
2021/06/05 10:58:53;;;;;;;;;;;;;;;31.35;22.33;99961.56;4260203;33;32344;-96
2021/06/05 11:01:30;;;;;;;;;;;;;;;30.75;21.64;99973.97;4249301;33;34731;-95
2021/06/05 11:04:27;;;;;;;;;;;;;;;30.65;21.48;99957.53;4311872;33;33088;-96
2021/06/05 11:07:03;;;;;;;;;;;;;;;29.87;22.40;99962.03;4304476;33;32977;-96
2021/06/05 11:09:50;;;;;;;;;;;;;;;29.92;23.38;99953.56;4283548;33;26383;-96
2021/06/05 11:12:26;;;;;;;;;;;;;;;30.15;22.56;99953.63;4307697;33;34622;-95
2021/06/05 11:15:00;;;;;;;;;;;;;;;31.34;22.44;99948.75;4334203;33;33770;-95
2021/06/05 11:17:42;;;;;;;;;;;;;;;31.91;20.95;99935.97;4333022;33;33088;-96
2021/06/05 11:20:34;;;;;;;;;;;;;;;32.05;22.10;99936.62;4321717;33;34082;-95
2021/06/05 11:23:17;;;;;;;;;;;;;;;32.33;20.64;99939.13;4319451;33;34657;-95
2021/06/05 11:26:23;;;;;;;;;;;;;;;32.56;21.54;99943.41;4334470;27;34735;-96
2021/06/05 11:29:05;;;;;;;;;;;;;;;32.52;20.65;99950.00;4324864;27;34705;-96
2021/06/05 11:31:51;;;;;;;;;;;;;;;33.31;19.73;99935.84;4313758;33;32874;-96
2021/06/05 11:34:34;;;;;;;;;;;;;;;32.94;20.89;99941.88;4298784;33;35371;-95
2021/06/05 11:37:15;;;;;;;;;;;;;;;32.20;19.93;99938.97;4297831;33;33937;-96
2021/06/05 11:40:05;;;;;;;;;;;;;;;32.07;19.64;99934.34;4279755;33;33937;-95
2021/06/05 11:42:52;;;;;;;;;;;;;;;32.32;18.72;99923.50;4261636;33;33147;-94
2021/06/05 11:45:25;;;;;;;;;;;;;;;32.08;18.87;99921.97;4260462;33;35213;-94
2021/06/05 11:47:59;;;;;;;;;;;;;;;32.79;19.54;99923.66;4273005;33;34212;-93
2021/06/05 11:50:34;;;;;;;;;;;;;;;32.65;20.68;99931.38;4275929;33;33818;-94
2021/06/05 11:53:27;;;;;;;;;;;;;;;32.51;19.55;99915.59;4274740;33;32880;-93
2021/06/05 11:56:43;;;;;;;;;;;;;;;32.46;20.00;99918.56;4277199;33;33697;-94
2021/06/05 11:59:19;;;;;;;;;;;;;;;32.41;19.25;99915.94;4273516;33;34847;-93
2021/06/05 12:02:08;;;;;;;;;;;;;;;31.89;19.30;99916.72;4336962;27;33673;-93
2021/06/05 12:04:47;;;;;;;;;;;;;;;31.94;20.76;99918.53;4305407;33;33566;-95
2021/06/05 12:07:23;;;;;;;;;;;;;;;31.59;20.05;99912.88;4305161;33;35436;-95
2021/06/05 12:09:58;;;;;;;;;;;;;;;31.98;21.19;99908.34;4307419;33;33726;-94
2021/06/05 12:12:38;;;;;;;;;;;;;;;31.26;20.67;99902.06;4295756;33;34574;-92
2021/06/05 12:15:20;;;;;;;;;;;;;;;31.52;21.63;99902.97;4306020;33;33690;-92
2021/06/05 12:17:56;;;;;;;;;;;;;;;32.24;20.50;99899.19;4305606;33;33260;-93
2021/06/05 12:20:40;;;;;;;;;;;;;;;32.93;20.72;99897.44;4317358;27;34185;-94
2021/06/05 12:23:21;;;;;;;;;;;;;;;32.19;20.71;99891.78;4315515;33;33896;-93
2021/06/05 12:26:07;;;;;;;;;;;;;;;33.32;20.92;99895.50;4330865;33;33383;-93
2021/06/05 12:28:47;;;;;;;;;;;;;;;33.05;20.30;99883.56;4332279;33;32587;-90
2021/06/05 12:31:31;;;;;;;;;;;;;;;33.34;19.45;99890.38;4332580;33;34846;-93
2021/06/05 12:34:08;;;;;;;;;;;;;;;33.45;20.75;99874.03;4320864;33;33953;-93
2021/06/05 12:36:53;;;;;;;;;;;;;;;33.09;20.35;99876.12;4320749;33;34214;-96
2021/06/05 12:39:26;;;;;;;;;;;;;;;33.51;22.70;99879.09;4321366;33;34478;-91
2021/06/05 12:42:00;;;;;;;;;;;;;;;33.49;20.21;99881.41;4333491;33;34424;-91
2021/06/05 12:45:12;;;;;;;;;;;;;;;33.41;21.01;99896.28;4321942;33;34796;-93
2021/06/05 12:47:47;;;;;;;;;;;;;;;32.46;21.12;99878.59;4386319;27;33121;-95
2021/06/05 12:50:53;;;;;;;;;;;;;;;33.14;22.51;99877.94;4007075;32;35295;-94
2021/06/05 12:53:29;;;;;;;;;;;;;;;32.72;20.54;99875.78;4363834;27;33562;-93
2021/06/05 12:56:26;;;;;;;;;;;;;;;33.41;22.63;99868.25;4341001;33;33941;-95
2021/06/05 12:59:07;;;;;;;;;;;;;;;33.21;19.73;99865.06;4339051;32;32639;-96
2021/06/05 13:01:52;;;;;;;;;;;;;;;33.58;23.10;99856.97;4321790;33;33426;-96
2021/06/05 13:04:34;;;;;;;;;;;;;;;33.82;22.08;99860.28;4341922;33;34939;-95
2021/06/05 13:07:07;;;;;;;;;;;;;;;32.68;21.72;99853.25;4338372;33;34499;-95
2021/06/05 13:09:44;;;;;;;;;;;;;;;32.37;21.11;99859.03;4332188;27;31971;-93
2021/06/05 13:12:20;;;;;;;;;;;;;;;32.31;21.14;99849.19;4324749;33;34078;-94
2021/06/05 13:15:08;;;;;;;;;;;;;;;32.82;20.54;99841.84;4288102;33;34648;-94
2021/06/05 13:17:52;;;;;;;;;;;;;;;33.17;20.91;99847.28;4297398;33;34096;-95
2021/06/05 13:24:12;;;;;;;;;;;;;;;33.68;20.64;99835.31;4291994;33;34777;-96
2021/06/05 13:26:56;;;;;;;;;;;;;;;34.01;20.57;99828.97;4300615;33;33444;-90
2021/06/05 13:29:33;;;;;;;;;;;;;;;33.54;21.05;99821.56;4291498;33;35504;-93
2021/06/05 13:32:42;;;;;;;;;;;;;;;33.23;21.42;99823.56;4169447;27;33701;-93
2021/06/05 13:35:16;;;;;;;;;;;;;;;32.28;23.52;99828.31;4290496;33;34490;-92
2021/06/05 13:38:03;;;;;;;;;;;;;;;31.78;22.69;99817.63;4266373;33;34619;-93
2021/06/05 13:40:36;;;;;;;;;;;;;;;32.41;21.80;99815.25;4302185;33;34111;-94
2021/06/05 13:43:10;;;;;;;;;;;;;;;31.98;22.30;99814.16;4291199;33;33841;-94
2021/06/05 13:45:43;;;;;;;;;;;;;;;31.90;23.19;99814.16;4279745;33;34958;-93
2021/06/05 13:48:16;;;;;;;;;;;;;;;31.98;23.64;99807.75;4290630;33;32850;-93
2021/06/05 13:50:49;;;;;;;;;;;;;;;32.64;23.56;99801.88;4290703;33;34241;-94
2021/06/05 13:53:22;;;;;;;;;;;;;;;33.22;24.34;99804.28;4291010;33;32392;-93
2021/06/05 13:55:56;;;;;;;;;;;;;;;33.39;20.46;99793.00;4302765;33;33854;-94
2021/06/05 13:58:30;;;;;;;;;;;;;;;33.73;20.92;99781.88;4290586;33;34839;-94
2021/06/05 14:01:03;;;;;;;;;;;;;;;33.89;21.03;99782.91;4304365;33;34553;-89
2021/06/05 14:03:37;;;;;;;;;;;;;;;33.95;21.00;99784.34;4290293;33;32762;-93
2021/06/05 14:06:10;;;;;;;;;;;;;;;34.33;20.07;99778.88;4278364;33;34276;-96
2021/06/05 14:08:57;;;;;;;;;;;;;;;34.65;21.19;99775.19;4289162;33;33112;-95
2021/06/05 14:11:30;;;;;;;;;;;;;;;35.12;21.01;99762.72;4315956;33;34342;-94
2021/06/05 14:14:15;;;;;;;;;;;;;;;34.89;21.34;99765.16;4315308;33;33318;-96
2021/06/05 14:17:06;;;;;;;;;;;;;;;34.87;19.48;99761.06;4304088;33;34499;-96
2021/06/05 14:20:12;;;;;;;;;;;;;;;34.39;19.75;99755.03;4211977;33;36170;-94
2021/06/05 14:22:49;;;;;;;;;;;;;;;33.78;21.42;99764.87;4291666;33;35892;-93
2021/06/05 14:25:26;;;;;;;;;;;;;;;33.99;21.21;99762.03;4305434;33;32874;-94
2021/06/05 14:27:59;;;;;;;;;;;;;;;34.30;20.50;99747.56;4306223;33;34920;-95
2021/06/05 14:30:37;;;;;;;;;;;;;;;34.57;20.69;99750.03;4317137;33;34006;-96
2021/06/05 14:33:25;;;;;;;;;;;;;;;34.13;20.13;99753.31;4274625;33;33881;-94
2021/06/05 14:35:58;;;;;;;;;;;;;;;33.81;20.18;99757.78;4289835;33;33463;-92
2021/06/05 14:38:42;;;;;;;;;;;;;;;33.11;21.60;99747.84;4286108;33;33815;-94
2021/06/05 14:44:21;;;;;;;;;;;;;;;32.65;21.69;99746.75;4317494;33;33565;-94
2021/06/05 14:46:54;;;;;;;;;;;;;;;33.39;22.47;99741.78;4305900;33;34416;-94
2021/06/05 14:52:34;;;;;;;;;;;;;;;33.15;21.78;99743.22;4302894;33;33352;-94
2021/06/05 14:55:09;;;;;;;;;;;;;;;32.55;21.87;99734.78;4313954;33;34009;-95
2021/06/05 14:57:42;;;;;;;;;;;;;;;32.20;22.54;99737.72;4315256;33;34709;-94
2021/06/05 15:00:17;;;;;;;;;;;;;;;32.02;22.68;99736.06;4339088;27;35010;-94
2021/06/05 15:03:05;;;;;;;;;;;;;;;31.99;23.53;99736.72;4318013;33;34140;-94
2021/06/05 15:05:58;;;;;;;;;;;;;;;32.34;25.11;99736.69;4317190;33;34012;-93
2021/06/05 15:08:32;;;;;;;;;;;;;;;32.08;23.08;99722.75;4319369;33;33593;-96
2021/06/05 15:11:16;;;;;;;;;;;;;;;31.89;22.78;99723.09;4318528;33;33896;-93
2021/06/05 15:13:58;;;;;;;;;;;;;;;32.46;22.08;99722.03;4318239;33;34349;-96
2021/06/05 15:47:19;;;;;;;;;;;;;;;32.99;22.37;99677.81;4190435;27;20423;-96
2021/06/05 15:50:16;;;;;;;;;;;;;;;31.91;22.98;99676.13;4294558;33;35699;-92
2021/06/05 17:25:46;;;;;;;;;;;;;;;30.17;39.23;99641.25;4332808;33;34351;-96
2021/06/05 17:28:45;;;;;;;;;;;;;;;30.01;40.09;99640.84;4300771;33;34766;-92
2021/06/05 17:31:18;;;;;;;;;;;;;;;29.64;39.52;99635.37;4314323;33;34790;-92
2021/06/05 17:33:51;;;;;;;;;;;;;;;29.65;39.35;99642.56;4304638;33;32809;-92
2021/06/05 17:36:28;;;;;;;;;;;;;;;29.30;40.63;99647.88;4328496;33;33948;-94
2021/06/05 17:39:02;;;;;;;;;;;;;;;28.93;40.44;99644.25;4305739;33;34899;-93
2021/06/05 17:41:48;;;;;;;;;;;;;;;29.05;40.97;99652.88;4294672;33;34581;-95